createdAt,value
2022-11-27T00:00:46.576Z,1.52
2022-11-27T00:03:13.702Z,1.60
2022-11-27T00:05:40.708Z,1.42
2022-11-27T00:08:07.683Z,1.75
2022-11-27T00:10:34.630Z,1.40
2022-11-27T00:13:01.522Z,1.60
2022-11-27T00:15:28.417Z,1.50
2022-11-27T00:17:55.717Z,1.55
2022-11-27T00:20:26.102Z,1.50
2022-11-27T00:22:55.538Z,1.60
2022-11-27T00:25:22.481Z,1.63
2022-11-27T00:27:49.426Z,1.63
2022-11-27T00:30:16.523Z,1.60
2022-11-27T00:32:43.631Z,1.55
2022-11-27T00:35:10.745Z,1.45
2022-11-27T00:37:37.701Z,1.67
2022-11-27T00:40:05.559Z,1.80
2022-11-27T00:42:32.481Z,1.88
2022-11-27T00:44:59.356Z,1.80
2022-11-27T00:47:26.286Z,1.80
2022-11-27T00:49:53.467Z,1.67
2022-11-27T00:52:20.388Z,1.30
2022-11-27T00:54:47.272Z,1.67
2022-11-27T00:57:14.353Z,1.70
2022-11-27T00:59:41.387Z,1.67
2022-11-27T01:02:08.556Z,1.50
2022-11-27T01:04:35.524Z,1.70
2022-11-27T01:07:02.500Z,1.85
2022-11-27T01:09:29.403Z,1.70
2022-11-27T01:11:56.540Z,1.90
2022-11-27T01:14:23.493Z,1.50
2022-11-27T01:16:50.608Z,1.60
2022-11-27T01:19:17.738Z,2.03
2022-11-27T01:21:44.995Z,1.80
2022-11-27T01:24:13.029Z,1.83
2022-11-27T01:26:40.259Z,1.80
2022-11-27T01:29:07.261Z,1.85
2022-11-27T01:31:34.425Z,1.75
2022-11-27T01:34:08.245Z,1.80
2022-11-27T01:36:35.217Z,1.60
2022-11-27T01:39:02.451Z,1.55
2022-11-27T01:41:37.037Z,1.70
2022-11-27T01:44:25.355Z,1.73
2022-11-27T01:47:16.577Z,1.60
2022-11-27T01:49:46.916Z,1.57
2022-11-27T01:52:27.444Z,1.80
2022-11-27T01:55:09.292Z,1.88
2022-11-27T01:57:46.083Z,1.70
2022-11-27T02:00:14.863Z,1.70
2022-11-27T02:02:42.664Z,2.00
2022-11-27T02:05:10.682Z,2.25
2022-11-27T02:07:37.764Z,1.90
2022-11-27T02:10:05.403Z,1.70
2022-11-27T02:12:55.417Z,1.75
2022-11-27T02:15:25.292Z,1.60
2022-11-27T02:18:07.310Z,1.90
2022-11-27T02:23:22.427Z,1.50
2022-11-27T02:26:01.413Z,1.60
2022-11-27T02:29:03.231Z,1.60
2022-11-27T02:31:47.151Z,1.60
2022-11-27T02:34:21.997Z,1.50
2022-11-27T02:36:57.990Z,1.30
2022-11-27T02:39:30.803Z,1.63
2022-11-27T02:42:00.730Z,1.35
2022-11-27T02:44:27.667Z,1.50
2022-11-27T02:46:54.673Z,1.42
2022-11-27T02:49:21.683Z,1.35
2022-11-27T02:51:52.510Z,1.40
2022-11-27T02:54:22.159Z,1.30
2022-11-27T02:56:49.192Z,1.40
2022-11-27T02:59:16.086Z,1.40
2022-11-27T03:01:45.631Z,1.33
2022-11-27T03:04:20.509Z,1.52
2022-11-27T03:06:54.990Z,1.20
2022-11-27T03:09:42.657Z,1.50
2022-11-27T03:12:10.127Z,1.88
2022-11-27T03:14:37.635Z,1.40
2022-11-27T03:17:46.249Z,1.40
2022-11-27T03:20:28.383Z,1.27
2022-11-27T03:22:55.346Z,1.40
2022-11-27T03:25:22.892Z,1.48
2022-11-27T03:27:56.266Z,1.50
2022-11-27T03:30:23.261Z,1.40
2022-11-27T03:32:50.169Z,1.30
2022-11-27T03:35:20.289Z,1.30
2022-11-27T03:37:47.297Z,1.40
2022-11-27T03:40:14.451Z,1.30
2022-11-27T03:43:04.995Z,1.30
2022-11-27T03:45:46.176Z,1.42
2022-11-27T03:48:34.664Z,1.45
2022-11-27T03:51:19.504Z,1.30
2022-11-27T03:53:52.304Z,1.40
2022-11-27T03:56:34.329Z,1.30
2022-11-27T03:59:12.092Z,1.40
2022-11-27T04:01:39.104Z,1.20
2022-11-27T04:04:06.601Z,1.23
2022-11-27T04:06:33.586Z,1.25
2022-11-27T04:09:00.499Z,1.30
2022-11-27T04:11:27.634Z,1.50
2022-11-27T04:13:54.476Z,1.30
2022-11-27T04:16:21.737Z,1.38
2022-11-27T04:18:48.683Z,1.60
2022-11-27T04:21:16.968Z,1.20
2022-11-27T04:23:44.425Z,1.23
2022-11-27T04:26:11.420Z,1.50
2022-11-27T04:28:38.367Z,1.20
2022-11-27T04:31:05.724Z,1.23
2022-11-27T04:33:33.680Z,1.30
2022-11-27T04:36:00.557Z,1.00
2022-11-27T04:38:27.605Z,1.10
2022-11-27T04:40:54.660Z,1.30
2022-11-27T04:43:21.599Z,1.25
2022-11-27T04:45:48.699Z,1.20
2022-11-27T04:48:15.632Z,1.40
2022-11-27T04:50:42.526Z,1.40
2022-11-27T04:53:09.405Z,1.20
2022-11-27T04:55:36.319Z,1.27
2022-11-27T04:58:03.407Z,1.30
2022-11-27T05:00:30.420Z,1.25
2022-11-27T05:02:57.480Z,1.30
2022-11-27T05:05:24.494Z,1.50
2022-11-27T05:07:51.642Z,1.45
2022-11-27T05:10:18.689Z,1.45
2022-11-27T05:12:45.847Z,1.27
2022-11-27T05:15:12.725Z,1.30
2022-11-27T05:17:39.654Z,1.55
2022-11-27T05:20:07.756Z,1.30
2022-11-27T05:22:35.133Z,1.30
2022-11-27T05:25:02.218Z,1.20
2022-11-27T05:27:29.170Z,1.52
2022-11-27T05:29:56.247Z,1.40
2022-11-27T05:32:23.116Z,1.27
2022-11-27T05:34:50.028Z,1.48
2022-11-27T05:37:19.732Z,1.38
2022-11-27T05:39:47.176Z,1.40
2022-11-27T05:42:14.098Z,1.20
2022-11-27T05:44:41.447Z,1.50
2022-11-27T05:47:08.637Z,1.10
2022-11-27T05:49:35.671Z,1.10
2022-11-27T05:52:02.679Z,1.10
2022-11-27T05:54:29.632Z,1.10
2022-11-27T05:56:56.563Z,1.10
2022-11-27T05:59:23.484Z,1.38
2022-11-27T06:01:50.488Z,1.10
2022-11-27T06:04:17.566Z,1.10
2022-11-27T06:06:44.516Z,1.17
2022-11-27T06:09:13.437Z,1.17
2022-11-27T06:11:40.697Z,1.10
2022-11-27T06:14:08.975Z,1.02
2022-11-27T06:16:36.197Z,1.10
2022-11-27T06:19:03.269Z,1.08
2022-11-27T06:21:30.230Z,1.20
2022-11-27T06:23:57.161Z,1.17
2022-11-27T06:26:27.940Z,1.17
2022-11-27T06:28:55.657Z,1.00
2022-11-27T06:31:24.611Z,1.20
2022-11-27T06:33:52.473Z,1.15
2022-11-27T06:36:19.609Z,1.10
2022-11-27T06:38:46.943Z,1.10
2022-11-27T06:41:16.076Z,1.08
2022-11-27T06:43:43.030Z,1.00
2022-11-27T06:46:12.521Z,1.15
2022-11-27T06:48:39.563Z,1.00
2022-11-27T06:51:07.099Z,1.20
2022-11-27T06:53:35.681Z,1.13
2022-11-27T06:56:11.286Z,1.10
2022-11-27T06:58:38.245Z,1.10
2022-11-27T07:01:07.716Z,1.13
2022-11-27T07:03:34.956Z,1.00
2022-11-27T07:06:02.854Z,1.00
2022-11-27T07:08:30.030Z,1.23
2022-11-27T07:11:08.360Z,1.20
2022-11-27T07:13:35.325Z,1.20
2022-11-27T07:16:03.139Z,1.10
2022-11-27T07:18:30.524Z,1.10
2022-11-27T07:20:57.680Z,1.10
2022-11-27T07:23:24.830Z,1.10
2022-11-27T07:25:51.790Z,1.10
2022-11-27T07:28:19.209Z,1.08
2022-11-27T07:30:46.346Z,1.30
2022-11-27T07:33:13.237Z,1.10
2022-11-27T07:35:40.108Z,1.15
2022-11-27T07:38:06.943Z,1.08
2022-11-27T07:40:33.877Z,1.20
2022-11-27T07:43:00.809Z,1.23
2022-11-27T07:45:27.692Z,1.10
2022-11-27T07:47:54.701Z,1.10
2022-11-27T07:50:21.626Z,1.60
2022-11-27T07:52:48.512Z,1.40
2022-11-27T07:55:15.430Z,1.30
2022-11-27T07:57:42.575Z,1.30
2022-11-27T08:00:10.211Z,1.05
2022-11-27T08:02:37.179Z,1.10
2022-11-27T08:05:09.558Z,1.23
2022-11-27T08:07:39.363Z,1.40
2022-11-27T08:10:07.020Z,1.30
2022-11-27T08:12:33.886Z,1.30
2022-11-27T08:15:00.944Z,1.33
2022-11-27T08:17:27.950Z,1.20
2022-11-27T08:19:54.900Z,1.40
2022-11-27T08:22:21.786Z,1.20
2022-11-27T08:24:48.914Z,1.77
2022-11-27T08:27:16.462Z,1.60
2022-11-27T08:29:43.441Z,1.50
2022-11-27T08:32:10.558Z,1.52
2022-11-27T08:34:37.699Z,1.50
2022-11-27T08:37:08.160Z,1.42
2022-11-27T08:39:35.617Z,1.42
2022-11-27T08:42:02.543Z,1.42
2022-11-27T08:44:29.484Z,1.52
2022-11-27T08:46:56.361Z,1.70
2022-11-27T08:49:23.422Z,1.70
2022-11-27T08:51:50.330Z,1.83
2022-11-27T08:54:17.212Z,1.88
2022-11-27T08:56:44.077Z,1.40
2022-11-27T08:59:11.048Z,1.63
2022-11-27T09:01:38.157Z,1.88
2022-11-27T09:04:05.273Z,1.80
2022-11-27T09:06:34.760Z,1.80
2022-11-27T09:09:03.399Z,2.30
2022-11-27T09:11:31.594Z,1.85
2022-11-27T09:14:02.330Z,1.60
2022-11-27T09:16:30.548Z,1.80
2022-11-27T09:18:57.649Z,2.03
2022-11-27T09:21:27.297Z,1.83
2022-11-27T09:23:58.646Z,1.70
2022-11-27T09:26:25.980Z,1.73
2022-11-27T09:28:53.503Z,1.75
2022-11-27T09:31:20.740Z,1.98
2022-11-27T09:33:47.770Z,1.80
2022-11-27T09:36:24.674Z,1.70
2022-11-27T09:38:53.112Z,2.20
2022-11-27T09:41:26.059Z,1.70
2022-11-27T09:43:57.934Z,2.22
2022-11-27T09:46:29.067Z,2.08
2022-11-27T09:48:56.126Z,2.10
2022-11-27T09:51:28.616Z,1.98
2022-11-27T09:54:08.389Z,2.15
2022-11-27T09:56:35.877Z,2.00
2022-11-27T09:59:02.852Z,1.85
2022-11-27T10:01:38.438Z,2.00
2022-11-27T10:04:16.850Z,1.92
2022-11-27T10:06:49.562Z,2.10
2022-11-27T10:09:16.552Z,1.92
2022-11-27T10:11:52.460Z,2.42
2022-11-27T10:14:25.389Z,2.33
2022-11-27T10:17:15.581Z,2.33
2022-11-27T10:19:47.845Z,2.28
2022-11-27T10:22:36.741Z,2.20
2022-11-27T10:25:29.593Z,1.98
2022-11-27T10:28:02.278Z,2.10
2022-11-27T10:30:29.825Z,1.88
2022-11-27T10:32:57.501Z,2.15
2022-11-27T10:35:29.440Z,2.22
2022-11-27T10:40:36.554Z,2.30
2022-11-27T10:43:04.810Z,1.63
2022-11-27T10:45:37.412Z,1.60
2022-11-27T10:48:04.487Z,2.05
2022-11-27T10:50:31.447Z,1.52
2022-11-27T10:53:00.998Z,1.90
2022-11-27T10:55:51.586Z,1.85
2022-11-27T10:58:40.517Z,2.22
2022-11-27T11:01:12.613Z,1.63
2022-11-27T11:03:39.791Z,1.90
2022-11-27T11:06:21.996Z,1.92
2022-11-27T11:09:21.009Z,1.73
2022-11-27T11:11:47.992Z,1.90
2022-11-27T11:14:25.638Z,2.20
2022-11-27T11:16:53.520Z,1.70
2022-11-27T11:19:29.973Z,1.75
2022-11-27T11:21:56.920Z,1.58
2022-11-27T11:24:27.215Z,1.50
2022-11-27T11:27:15.508Z,1.60
2022-11-27T11:29:46.069Z,2.00
2022-11-27T11:32:19.701Z,1.48
2022-11-27T11:35:00.917Z,1.90
2022-11-27T11:37:33.363Z,2.85
2022-11-27T11:42:34.147Z,1.98
2022-11-27T11:45:18.085Z,1.83
2022-11-27T11:47:50.635Z,1.90
2022-11-27T11:50:41.124Z,1.95
2022-11-27T11:53:26.128Z,1.88
2022-11-27T11:56:20.905Z,1.77
2022-11-27T11:59:00.440Z,2.08
2022-11-27T12:02:02.026Z,1.88
2022-11-27T12:04:31.986Z,1.80
2022-11-27T12:06:58.944Z,1.73
2022-11-27T12:09:51.220Z,1.60
2022-11-27T12:12:42.804Z,1.60
2022-11-27T12:15:15.940Z,2.00
2022-11-27T12:18:08.441Z,2.03
2022-11-27T12:20:38.522Z,2.17
2022-11-27T12:23:30.386Z,2.22
2022-11-27T12:26:15.142Z,2.90
2022-11-27T12:28:57.615Z,2.13
2022-11-27T12:31:44.812Z,2.33
2022-11-27T12:34:33.303Z,1.85
2022-11-27T12:37:21.953Z,2.42
2022-11-27T12:40:13.193Z,2.55
2022-11-27T12:42:54.612Z,1.90
2022-11-27T12:45:45.937Z,2.70
2022-11-27T12:48:25.031Z,2.35
2022-11-27T12:50:56.133Z,2.40
2022-11-27T12:53:30.940Z,2.20
2022-11-27T12:56:21.140Z,2.38
2022-11-27T12:58:57.342Z,2.55
2022-11-27T13:01:33.734Z,2.13
2022-11-27T13:04:11.882Z,2.00
2022-11-27T13:07:05.888Z,2.70
2022-11-27T13:09:37.722Z,3.00
2022-11-27T13:14:31.763Z,2.45
2022-11-27T13:17:01.160Z,2.42
2022-11-27T13:19:39.586Z,2.38
2022-11-27T13:22:14.915Z,2.33
2022-11-27T13:24:42.777Z,2.72
2022-11-27T13:27:17.405Z,2.60
2022-11-27T13:29:50.316Z,2.78
2022-11-27T13:32:28.883Z,2.65
2022-11-27T13:34:57.022Z,2.63
2022-11-27T13:37:39.844Z,3.10
2022-11-27T13:40:31.635Z,2.67
2022-11-27T13:43:03.273Z,3.08
2022-11-27T13:45:34.441Z,2.63
2022-11-27T13:48:01.899Z,3.10
2022-11-27T13:50:31.496Z,2.58
2022-11-27T13:53:04.405Z,4.32
2022-11-27T13:55:38.954Z,3.35
2022-11-27T13:58:06.590Z,3.53
2022-11-27T14:00:42.109Z,3.08
2022-11-27T14:03:21.147Z,3.25
2022-11-27T14:05:48.059Z,3.00
2022-11-27T14:08:35.379Z,3.10
2022-11-27T14:11:08.977Z,4.20
2022-11-27T14:13:38.685Z,3.47
2022-11-27T14:16:30.374Z,3.72
2022-11-27T14:18:59.661Z,4.18
2022-11-27T14:21:42.524Z,3.60
2022-11-27T14:24:24.791Z,3.75
2022-11-27T14:26:54.982Z,4.05
2022-11-27T14:29:22.919Z,4.78
2022-11-27T14:31:58.023Z,4.88
2022-11-27T14:34:28.183Z,4.03
2022-11-27T14:36:55.580Z,4.50
2022-11-27T14:39:35.717Z,4.10
2022-11-27T14:42:04.513Z,3.63
2022-11-27T14:44:31.643Z,4.68
2022-11-27T14:47:03.766Z,5.65
2022-11-27T14:49:31.079Z,4.65
2022-11-27T14:52:16.217Z,4.15
2022-11-27T14:54:44.667Z,4.53
2022-11-27T14:57:15.463Z,4.22
2022-11-27T14:59:42.493Z,4.57
2022-11-27T15:02:12.981Z,4.93
2022-11-27T15:04:41.287Z,4.65
2022-11-27T15:07:25.170Z,4.10
2022-11-27T15:09:55.281Z,4.13
2022-11-27T15:12:34.360Z,4.57
2022-11-27T15:15:36.442Z,4.65
2022-11-27T15:18:05.376Z,4.30
2022-11-27T15:20:39.492Z,4.25
2022-11-27T15:23:17.376Z,4.25
2022-11-27T15:25:46.675Z,4.00
2022-11-27T15:28:39.597Z,3.75
2022-11-27T15:31:30.730Z,3.88
2022-11-27T15:33:58.752Z,4.10
2022-11-27T15:36:25.972Z,4.38
2022-11-27T15:38:52.962Z,4.00
2022-11-27T15:41:24.569Z,3.95
2022-11-27T15:43:52.885Z,4.40
2022-11-27T15:46:30.310Z,4.85
2022-11-27T15:48:57.378Z,4.32
2022-11-27T15:51:24.372Z,4.10
2022-11-27T15:53:51.389Z,4.93
2022-11-27T15:56:20.790Z,4.30
2022-11-27T15:58:47.703Z,5.38
2022-11-27T16:01:14.775Z,4.53
2022-11-27T16:03:41.860Z,4.68
2022-11-27T16:06:09.235Z,4.68
2022-11-27T16:08:36.323Z,5.15
2022-11-27T16:11:05.903Z,5.13
2022-11-27T16:13:33.074Z,5.35
2022-11-27T16:16:04.562Z,5.60
2022-11-27T16:18:32.839Z,5.18
2022-11-27T16:21:07.979Z,5.05
2022-11-27T16:23:35.933Z,5.10
2022-11-27T16:26:02.994Z,5.47
2022-11-27T16:28:30.855Z,6.03
2022-11-27T16:30:59.818Z,5.65
2022-11-27T16:33:30.326Z,5.60
2022-11-27T16:36:03.961Z,6.18
2022-11-27T16:38:30.848Z,5.82
2022-11-27T16:41:03.862Z,6.78
2022-11-27T16:43:34.611Z,6.13
2022-11-27T16:46:08.514Z,6.72
2022-11-27T16:48:36.604Z,6.35
2022-11-27T16:51:16.607Z,5.97
2022-11-27T16:53:45.317Z,6.07
2022-11-27T16:56:14.634Z,6.95
2022-11-27T16:58:42.927Z,6.05
2022-11-27T17:01:11.927Z,7.28
2022-11-27T17:03:38.967Z,6.57
2022-11-27T17:06:14.564Z,6.40
2022-11-27T17:08:41.665Z,5.65
2022-11-27T17:11:20.510Z,5.85
2022-11-27T17:13:48.325Z,6.05
2022-11-27T17:16:15.668Z,6.00
2022-11-27T17:18:43.645Z,5.50
2022-11-27T17:21:12.493Z,5.32
2022-11-27T17:23:43.074Z,5.55
2022-11-27T17:26:11.297Z,5.80
2022-11-27T17:28:38.493Z,5.20
2022-11-27T17:31:12.935Z,5.35
2022-11-27T17:33:40.096Z,5.38
2022-11-27T17:36:07.854Z,4.80
2022-11-27T17:38:35.046Z,5.00
2022-11-27T17:41:02.713Z,5.90
2022-11-27T17:43:30.675Z,6.78
2022-11-27T17:45:57.970Z,6.13
2022-11-27T17:48:25.192Z,5.90
2022-11-27T17:50:52.716Z,5.47
2022-11-27T17:53:19.888Z,4.65
2022-11-27T17:55:46.997Z,4.78
2022-11-27T17:58:13.943Z,5.50
2022-11-27T18:00:41.212Z,4.60
2022-11-27T18:03:08.408Z,4.30
2022-11-27T18:05:39.579Z,4.85
2022-11-27T18:08:06.691Z,4.65
2022-11-27T18:10:36.366Z,4.95
2022-11-27T18:13:03.584Z,4.85
2022-11-27T18:15:31.431Z,4.60
2022-11-27T18:17:59.755Z,4.90
2022-11-27T18:20:26.775Z,5.55
2022-11-27T18:22:53.709Z,5.28
2022-11-27T18:25:20.808Z,5.43
2022-11-27T18:27:47.697Z,6.13
2022-11-27T18:30:14.989Z,5.93
2022-11-27T18:32:41.878Z,7.75
2022-11-27T18:35:10.005Z,6.47
2022-11-27T18:37:38.522Z,5.95
2022-11-27T18:40:07.165Z,5.38
2022-11-27T18:42:34.402Z,6.25
2022-11-27T18:45:01.577Z,5.55
2022-11-27T18:47:28.671Z,5.00
2022-11-27T18:49:58.721Z,4.57
2022-11-27T18:52:25.671Z,5.15
2022-11-27T18:54:52.963Z,5.28
2022-11-27T18:57:20.134Z,5.43
2022-11-27T18:59:48.441Z,6.50
2022-11-27T19:02:15.828Z,5.95
2022-11-27T19:04:44.966Z,5.95
2022-11-27T19:07:12.217Z,6.30
2022-11-27T19:09:39.697Z,5.93
2022-11-27T19:12:07.489Z,6.22
2022-11-27T19:14:34.459Z,5.55
2022-11-27T19:17:01.408Z,5.35
2022-11-27T19:22:16.945Z,5.35
2022-11-27T19:24:43.934Z,5.22
2022-11-27T19:27:11.058Z,5.60
2022-11-27T19:29:38.147Z,5.10
2022-11-27T19:32:05.168Z,5.55
2022-11-27T19:34:32.401Z,5.05
2022-11-27T19:36:59.318Z,5.72
2022-11-27T19:39:27.313Z,5.57
2022-11-27T19:41:54.534Z,5.50
2022-11-27T19:44:21.587Z,5.95
2022-11-27T19:46:48.784Z,5.40
2022-11-27T19:49:17.770Z,5.32
2022-11-27T19:51:45.938Z,5.15
2022-11-27T19:54:13.796Z,5.57
2022-11-27T19:56:42.312Z,5.13
2022-11-27T19:59:10.543Z,5.25
2022-11-27T20:01:40.385Z,4.90
2022-11-27T20:04:07.907Z,4.90
2022-11-27T20:06:34.903Z,5.32
2022-11-27T20:09:02.777Z,5.38
2022-11-27T20:11:34.201Z,5.13
2022-11-27T20:14:01.525Z,5.47
2022-11-27T20:16:28.622Z,5.53
2022-11-27T20:18:55.716Z,4.93
2022-11-27T20:21:24.942Z,5.07
2022-11-27T20:23:52.542Z,5.05
2022-11-27T20:26:22.212Z,4.72
2022-11-27T20:28:49.863Z,5.22
2022-11-27T20:31:29.434Z,5.32
2022-11-27T20:33:58.254Z,5.53
2022-11-27T20:36:25.508Z,4.90
2022-11-27T20:38:53.888Z,5.13
2022-11-27T20:41:21.158Z,5.20
2022-11-27T20:43:50.760Z,4.88
2022-11-27T20:46:18.229Z,5.00
2022-11-27T20:48:46.229Z,6.15
2022-11-27T20:51:14.968Z,5.90
2022-11-27T20:53:43.471Z,5.95
2022-11-27T20:56:12.133Z,5.60
2022-11-27T20:58:40.319Z,5.95
2022-11-27T21:01:34.070Z,5.40
2022-11-27T21:04:03.257Z,5.88
2022-11-27T21:06:31.702Z,4.90
2022-11-27T21:09:02.692Z,4.55
2022-11-27T21:11:30.603Z,4.18
2022-11-27T21:14:01.579Z,4.63
2022-11-27T21:16:30.253Z,5.75
2022-11-27T21:18:59.130Z,4.35
2022-11-27T21:21:26.208Z,5.13
2022-11-27T21:23:54.157Z,5.32
2022-11-27T21:26:21.201Z,5.30
2022-11-27T21:28:48.647Z,4.90
2022-11-27T21:31:21.229Z,5.63
2022-11-27T21:33:48.841Z,4.40
2022-11-27T21:36:17.051Z,4.35
2022-11-27T21:38:43.995Z,5.07
2022-11-27T21:41:13.780Z,5.38
2022-11-27T21:43:41.202Z,5.22
2022-11-27T21:46:08.626Z,4.78
2022-11-27T21:48:35.778Z,4.32
2022-11-27T21:51:03.874Z,4.50
2022-11-27T21:53:32.177Z,4.57
2022-11-27T21:55:59.318Z,5.30
2022-11-27T21:58:26.769Z,5.18
2022-11-27T22:00:53.861Z,5.57
2022-11-27T22:03:21.139Z,5.45
2022-11-27T22:05:48.148Z,5.20
2022-11-27T22:08:15.061Z,5.25
2022-11-27T22:10:41.973Z,5.68
2022-11-27T22:13:09.093Z,5.00
2022-11-27T22:15:37.098Z,5.43
2022-11-27T22:18:04.254Z,5.07
2022-11-27T22:20:31.252Z,5.25
2022-11-27T22:22:58.298Z,5.03
2022-11-27T22:25:25.274Z,5.95
2022-11-27T22:27:52.565Z,5.50
2022-11-27T22:30:19.628Z,5.13
2022-11-27T22:32:46.585Z,5.22
2022-11-27T22:35:13.775Z,5.57
2022-11-27T22:37:40.677Z,5.38
2022-11-27T22:40:08.104Z,5.95
2022-11-27T22:42:35.152Z,5.75
2022-11-27T22:45:02.312Z,6.07
2022-11-27T22:47:29.287Z,6.22
2022-11-27T22:49:56.289Z,6.10
2022-11-27T22:52:23.637Z,5.93
2022-11-27T22:54:50.807Z,6.35
2022-11-27T22:57:18.880Z,5.75
2022-11-27T22:59:45.862Z,6.00
2022-11-27T23:02:12.896Z,5.63
2022-11-27T23:04:40.084Z,5.60
2022-11-27T23:07:07.846Z,6.30
2022-11-27T23:09:35.064Z,6.05
2022-11-27T23:12:02.081Z,6.13
2022-11-27T23:14:29.116Z,6.38
2022-11-27T23:16:56.172Z,5.75
2022-11-27T23:19:23.417Z,5.75
2022-11-27T23:21:50.456Z,5.75
2022-11-27T23:24:17.391Z,6.03
2022-11-27T23:26:44.431Z,5.85
2022-11-27T23:29:11.401Z,6.25
2022-11-27T23:31:38.424Z,5.78
2022-11-27T23:34:09.945Z,6.00
2022-11-27T23:36:37.052Z,5.93
2022-11-27T23:39:06.371Z,6.50
2022-11-27T23:41:33.304Z,6.50
2022-11-27T23:44:02.020Z,5.55
2022-11-27T23:46:29.424Z,6.63
2022-11-27T23:48:57.114Z,6.95
2022-11-27T23:51:29.532Z,5.97
2022-11-27T23:53:56.655Z,6.25
2022-11-27T23:56:25.295Z,5.43
2022-11-27T23:58:53.510Z,6.10
